Time;durP1;ratioP1;P1;durP2;ratioP2;P2;SDS_P1;SDS_P2;PMS_P1;PMS_P2;Temp;Humidity;BMP_temperature;BMP_pressure;BME280_temperature;BME280_humidity;BME280_pressure;Samples;Min_cycle;Max_cycle;Signal;HPM_P1;HPM_P2
2022/08/30 00:02:20;;;;;;;21.17;5.68;;;;;;;20.54;67.39;98670.00;5031455;28;20065;-68
2022/08/30 00:04:50;;;;;;;12.05;5.43;;;;;;;20.54;67.49;98672.84;5032473;28;20056;-68
2022/08/30 00:07:17;;;;;;;15.55;5.55;;;;;;;20.54;67.54;98681.31;5032210;28;20558;-67
2022/08/30 00:09:44;;;;;;;17.00;5.72;;;;;;;20.59;67.52;98678.00;5032708;28;20527;-68
2022/08/30 00:12:11;;;;;;;14.82;5.10;;;;;;;20.58;67.31;98688.53;5032524;28;20060;-69
2022/08/30 00:14:38;;;;;;;12.57;5.63;;;;;;;20.57;67.50;98686.91;5032565;28;20045;-68
2022/08/30 00:17:05;;;;;;;13.65;5.72;;;;;;;20.63;67.44;98673.91;5032597;28;20061;-68
2022/08/30 00:19:32;;;;;;;23.38;6.15;;;;;;;20.64;67.42;98677.56;5032583;28;20053;-69
2022/08/30 00:21:59;;;;;;;18.65;5.70;;;;;;;20.68;67.19;98676.31;5033101;28;20053;-67
2022/08/30 00:24:26;;;;;;;13.60;6.13;;;;;;;20.66;67.05;98681.56;5032333;28;20486;-67
2022/08/30 00:26:53;;;;;;;22.75;5.78;;;;;;;20.64;67.13;98680.38;5012830;28;20081;-68
2022/08/30 00:29:20;;;;;;;16.55;6.18;;;;;;;20.64;66.99;98674.72;5012519;28;20073;-68
2022/08/30 00:31:47;;;;;;;16.95;5.72;;;;;;;20.65;66.92;98673.50;5012794;28;20056;-68
2022/08/30 00:34:15;;;;;;;25.20;6.45;;;;;;;20.64;67.01;98674.72;5011521;28;20050;-68
2022/08/30 00:36:43;;;;;;;18.80;7.40;;;;;;;20.58;67.22;98679.25;5012464;28;20058;-68
2022/08/30 00:39:11;;;;;;;18.50;5.93;;;;;;;20.52;67.28;98680.91;5012827;28;20112;-68
2022/08/30 00:41:38;;;;;;;12.75;6.03;;;;;;;20.51;67.35;98687.78;5012258;28;20054;-68
2022/08/30 00:44:05;;;;;;;15.18;6.43;;;;;;;20.43;67.26;98675.75;5012658;28;20046;-68
2022/08/30 00:46:32;;;;;;;13.13;5.63;;;;;;;20.42;67.49;98679.81;5012230;28;20060;-69
2022/08/30 00:49:04;;;;;;;14.95;5.95;;;;;;;20.42;67.43;98673.34;5020976;28;20050;-67
2022/08/30 00:51:32;;;;;;;22.50;6.07;;;;;;;20.39;67.67;98675.00;5032205;28;20415;-67
2022/08/30 00:54:00;;;;;;;14.80;5.35;;;;;;;20.41;67.77;98669.72;5032199;28;20120;-70
2022/08/30 00:56:28;;;;;;;19.95;6.75;;;;;;;20.41;67.52;98666.91;5032494;28;20535;-68
2022/08/30 00:58:58;;;;;;;14.63;5.35;;;;;;;20.39;67.78;98660.06;5014428;28;20045;-68
2022/08/30 01:01:26;;;;;;;17.42;5.22;;;;;;;20.37;67.82;98656.84;5031716;28;20049;-68
2022/08/30 01:03:55;;;;;;;17.15;5.88;;;;;;;20.42;67.61;98667.69;5032195;28;20053;-68
2022/08/30 01:06:24;;;;;;;12.07;5.30;;;;;;;20.44;67.48;98662.44;5032136;28;20054;-67
2022/08/30 01:09:00;;;;;;;17.55;6.00;;;;;;;20.46;67.64;98652.31;5032498;28;20053;-68
2022/08/30 01:11:27;;;;;;;12.70;6.30;;;;;;;20.44;67.52;98653.94;5032105;28;20519;-67
2022/08/30 01:13:55;;;;;;;15.15;6.00;;;;;;;20.43;67.59;98660.84;5031695;28;20053;-68
2022/08/30 01:16:24;;;;;;;16.00;5.18;;;;;;;20.38;68.02;98661.28;5032300;28;20049;-68
2022/08/30 01:18:56;;;;;;;17.50;6.32;;;;;;;20.39;67.75;98662.88;5033645;28;20050;-68
2022/08/30 01:21:50;;;;;;;20.98;5.68;;;;;;;20.43;67.82;98664.44;5035602;28;20054;-68
2022/08/30 01:24:18;;;;;;;15.20;5.38;;;;;;;20.44;68.05;98668.06;5035893;28;20049;-67
2022/08/30 01:26:45;;;;;;;19.90;6.07;;;;;;;20.42;67.79;98650.72;5035110;28;20061;-68
2022/08/30 01:29:17;;;;;;;15.10;5.82;;;;;;;20.41;67.75;98649.13;5035450;28;20060;-67
2022/08/30 01:31:45;;;;;;;21.45;6.18;;;;;;;20.35;67.89;98650.81;5035276;28;20045;-68
2022/08/30 01:34:12;;;;;;;13.18;5.68;;;;;;;20.31;68.08;98650.06;5035327;28;20045;-68
2022/08/30 01:36:43;;;;;;;13.90;6.57;;;;;;;20.31;68.32;98650.06;5035343;28;20049;-68
2022/08/30 01:39:14;;;;;;;22.08;5.50;;;;;;;20.28;68.32;98650.91;5035395;28;20057;-68
2022/08/30 01:41:42;;;;;;;23.30;6.47;;;;;;;20.23;68.53;98654.97;5035225;28;20523;-67
2022/08/30 01:44:11;;;;;;;18.05;5.35;;;;;;;20.20;68.54;98655.00;5035203;28;20045;-69
2022/08/30 01:46:44;;;;;;;21.20;6.68;;;;;;;20.16;68.72;98655.03;5034896;28;20057;-68
2022/08/30 01:49:15;;;;;;;13.68;5.65;;;;;;;20.10;69.10;98655.88;5035181;28;20068;-68
2022/08/30 01:51:43;;;;;;;15.48;6.63;;;;;;;20.08;68.92;98659.13;5035082;28;20055;-68
2022/08/30 01:54:10;;;;;;;17.42;5.70;;;;;;;20.06;69.12;98655.09;5035260;28;20046;-68
2022/08/30 01:56:37;;;;;;;18.02;6.25;;;;;;;20.04;69.09;98658.34;5035257;28;20045;-69
2022/08/30 01:59:06;;;;;;;16.35;6.50;;;;;;;20.08;69.11;98655.50;5034831;28;20509;-68
2022/08/30 02:01:35;;;;;;;15.57;6.25;;;;;;;20.09;68.98;98648.63;5034518;28;20103;-68
2022/08/30 02:04:04;;;;;;;16.13;5.40;;;;;;;20.09;68.92;98645.78;5034626;28;20057;-68
2022/08/30 02:06:31;;;;;;;17.35;6.13;;;;;;;20.07;69.07;98651.06;5034698;28;20145;-68
2022/08/30 02:08:59;;;;;;;13.30;6.07;;;;;;;20.03;69.00;98651.09;5034836;28;20056;-68
2022/08/30 02:11:26;;;;;;;16.88;6.35;;;;;;;20.02;68.95;98645.88;5034714;28;20057;-68
2022/08/30 02:13:53;;;;;;;22.33;7.95;;;;;;;20.00;69.06;98646.28;5033269;28;20080;-69
2022/08/30 02:16:21;;;;;;;12.77;6.35;;;;;;;20.00;68.92;98657.56;5034605;28;20112;-68
2022/08/30 02:18:50;;;;;;;16.03;5.87;;;;;;;19.98;69.07;98660.81;5034612;28;20045;-69
2022/08/30 02:21:20;;;;;;;22.25;5.88;;;;;;;19.93;69.18;98664.06;5014749;28;20629;-68
2022/08/30 02:23:47;;;;;;;16.50;6.22;;;;;;;19.92;69.25;98651.19;5014513;28;20136;-68
2022/08/30 02:26:14;;;;;;;10.93;5.45;;;;;;;19.92;69.27;98651.19;5029186;28;20057;-68
2022/08/30 02:28:41;;;;;;;19.45;5.78;;;;;;;19.94;69.14;98660.06;5033142;28;20049;-67
2022/08/30 02:31:20;;;;;;;17.67;6.28;;;;;;;19.90;69.13;98653.59;5034252;28;20049;-68
2022/08/30 02:33:51;;;;;;;18.75;6.40;;;;;;;19.87;69.11;98664.97;5034299;28;20068;-67
2022/08/30 02:36:19;;;;;;;16.10;5.80;;;;;;;19.87;69.17;98662.13;5033889;28;20053;-68
2022/08/30 02:38:47;;;;;;;26.13;6.85;;;;;;;19.88;69.24;98667.38;5034216;28;20045;-67
2022/08/30 02:41:16;;;;;;;29.65;6.15;;;;;;;19.84;69.09;98669.38;5033217;28;20460;-67
2022/08/30 02:43:43;;;;;;;14.15;6.93;;;;;;;19.80;69.59;98668.63;5034003;28;20049;-67
2022/08/30 02:46:10;;;;;;;14.25;5.80;;;;;;;19.80;69.49;98667.81;5034055;28;20054;-67
2022/08/30 02:48:37;;;;;;;15.65;6.45;;;;;;;19.77;69.32;98666.63;5034030;28;20408;-68
2022/08/30 02:51:08;;;;;;;12.00;6.03;;;;;;;19.78;69.49;98673.88;5034087;28;20054;-70
2022/08/30 02:53:38;;;;;;;16.30;6.05;;;;;;;19.76;69.65;98681.16;5033760;28;20051;-69
2022/08/30 02:56:05;;;;;;;17.52;6.70;;;;;;;19.74;69.71;98666.66;5033828;28;20061;-70
2022/08/30 02:58:34;;;;;;;19.30;6.80;;;;;;;19.73;69.70;98676.34;5034297;28;20519;-71
2022/08/30 03:01:01;;;;;;;18.33;5.78;;;;;;;19.70;69.92;98672.34;5032630;28;20403;-70
2022/08/30 03:03:28;;;;;;;14.13;5.93;;;;;;;19.69;69.99;98672.75;5031848;28;20081;-70
2022/08/30 03:05:55;;;;;;;22.40;7.18;;;;;;;19.70;69.88;98666.69;5032770;28;20053;-70
2022/08/30 03:08:23;;;;;;;20.73;6.30;;;;;;;19.69;70.16;98670.72;5032062;28;20049;-70
2022/08/30 03:10:50;;;;;;;17.40;7.07;;;;;;;19.73;69.67;98679.97;5033592;28;20496;-70
2022/08/30 03:13:17;;;;;;;22.48;6.88;;;;;;;19.75;69.71;98680.34;5033503;28;20079;-70
2022/08/30 03:15:44;;;;;;;25.63;6.20;;;;;;;19.79;69.60;98675.50;5033600;28;20081;-70
2022/08/30 03:18:10;;;;;;;10.65;5.82;;;;;;;19.83;69.62;98673.44;5033354;28;20045;-69
2022/08/30 03:20:39;;;;;;;20.20;6.25;;;;;;;19.87;69.34;98684.72;5033432;28;20132;-69
2022/08/30 03:23:09;;;;;;;16.02;6.72;;;;;;;19.90;69.29;98676.19;5033032;28;20144;-70
2022/08/30 03:25:47;;;;;;;11.27;5.97;;;;;;;19.96;69.07;98674.53;5033096;28;20052;-70
2022/08/30 03:28:14;;;;;;;20.02;6.55;;;;;;;20.02;68.88;98676.91;5032986;28;20046;-70
2022/08/30 03:30:40;;;;;;;17.52;6.28;;;;;;;20.07;68.57;98673.66;5033479;28;20046;-70
2022/08/30 03:33:07;;;;;;;23.05;7.45;;;;;;;20.12;68.59;98673.19;5033109;28;20069;-71
2022/08/30 03:35:36;;;;;;;21.85;6.88;;;;;;;20.13;68.35;98677.66;5033045;28;20045;-70
2022/08/30 03:38:06;;;;;;;16.30;6.90;;;;;;;20.19;68.15;98681.66;5032790;28;20053;-70
2022/08/30 03:40:33;;;;;;;18.50;7.47;;;;;;;20.21;68.08;98679.19;5032974;28;20057;-70
2022/08/30 03:43:01;;;;;;;15.93;6.55;;;;;;;20.27;67.91;98681.16;5032688;28;20089;-70
2022/08/30 03:45:28;;;;;;;23.42;8.60;;;;;;;20.30;67.79;98685.16;5032890;28;20056;-70
2022/08/30 03:47:55;;;;;;;19.42;6.68;;;;;;;20.33;67.61;98681.50;5032607;28;20045;-70
2022/08/30 03:50:23;;;;;;;16.80;7.75;;;;;;;20.37;67.47;98680.25;5032954;28;20060;-72
2022/08/30 03:52:50;;;;;;;23.48;8.13;;;;;;;20.41;67.15;98683.84;5032845;28;20139;-70
2022/08/30 03:55:17;;;;;;;18.38;7.28;;;;;;;20.44;67.11;98688.66;5032719;28;20046;-70
2022/08/30 03:57:43;;;;;;;21.20;6.78;;;;;;;20.45;67.14;98692.28;5032391;28;20558;-70
2022/08/30 04:00:12;;;;;;;25.27;6.65;;;;;;;20.44;66.96;98685.84;5032431;28;20443;-70
2022/08/30 04:02:40;;;;;;;21.05;7.18;;;;;;;20.39;67.16;98694.75;5032192;28;20109;-70
2022/08/30 04:05:11;;;;;;;16.88;6.60;;;;;;;20.42;66.84;98690.28;5032588;28;20072;-72
2022/08/30 04:07:40;;;;;;;14.15;6.93;;;;;;;20.43;66.79;98686.25;5032500;28;20405;-70
2022/08/30 04:10:08;;;;;;;21.90;8.32;;;;;;;20.43;66.84;98691.91;5032568;28;20060;-71
2022/08/30 04:12:36;;;;;;;20.95;7.10;;;;;;;20.41;66.78;98697.16;5032209;28;20053;-72
2022/08/30 04:15:05;;;;;;;19.08;8.15;;;;;;;20.43;66.59;98697.56;5032294;28;20480;-71
2022/08/30 04:17:32;;;;;;;22.60;7.93;;;;;;;20.44;66.39;98688.66;5032202;28;20049;-71
2022/08/30 04:19:59;;;;;;;18.52;7.53;;;;;;;20.51;66.25;98697.06;5032299;28;20049;-70
2022/08/30 04:22:26;;;;;;;18.38;6.93;;;;;;;20.50;66.29;98691.84;5032330;28;20045;-70
2022/08/30 04:24:53;;;;;;;16.50;7.90;;;;;;;20.59;66.02;98703.44;5032241;28;20053;-70
2022/08/30 04:27:20;;;;;;;22.60;8.40;;;;;;;20.65;65.90;98699.75;5032201;28;20412;-70
2022/08/30 04:29:47;;;;;;;17.52;8.38;;;;;;;20.72;65.77;98701.72;5032810;28;20053;-71
2022/08/30 04:32:15;;;;;;;23.70;8.65;;;;;;;20.80;65.52;98700.38;5032266;28;20128;-70
2022/08/30 04:34:42;;;;;;;28.05;8.30;;;;;;;20.83;65.24;98693.88;5032296;28;20041;-70
2022/08/30 04:37:09;;;;;;;25.40;8.15;;;;;;;20.94;65.08;98694.56;5031957;28;20535;-71
2022/08/30 04:39:37;;;;;;;17.20;7.43;;;;;;;20.99;64.87;98696.97;5032499;28;20061;-70
2022/08/30 04:42:04;;;;;;;23.75;7.47;;;;;;;21.03;64.68;98692.88;5031908;28;20049;-71
2022/08/30 04:44:31;;;;;;;17.33;8.40;;;;;;;21.13;64.69;98685.47;5032315;28;20045;-71
2022/08/30 04:46:58;;;;;;;24.65;8.43;;;;;;;21.24;64.04;98694.63;5032490;28;20072;-71
2022/08/30 04:49:25;;;;;;;20.20;8.48;;;;;;;21.33;63.70;98689.25;5032443;28;20049;-70
2022/08/30 04:51:52;;;;;;;25.63;8.73;;;;;;;21.45;63.47;98685.84;5031926;28;20415;-70
2022/08/30 04:54:19;;;;;;;19.20;7.93;;;;;;;21.53;63.31;98687.38;5034330;28;20077;-71
2022/08/30 04:56:46;;;;;;;25.27;8.75;;;;;;;21.59;63.08;98685.66;5035617;28;20046;-71
2022/08/30 04:59:12;;;;;;;22.90;8.70;;;;;;;21.62;62.89;98679.94;5036286;28;20115;-70
2022/08/30 05:01:40;;;;;;;18.80;8.82;;;;;;;21.63;62.89;98686.41;5035874;28;20057;-72
2022/08/30 05:04:11;;;;;;;23.23;8.25;;;;;;;21.66;62.79;98679.88;5036019;28;20128;-71
2022/08/30 05:06:38;;;;;;;25.13;9.20;;;;;;;21.67;62.60;98675.81;5034822;28;20041;-70
2022/08/30 05:09:05;;;;;;;35.13;9.23;;;;;;;21.71;62.52;98682.25;5036260;28;20046;-71
2022/08/30 05:11:32;;;;;;;18.02;8.45;;;;;;;21.68;62.38;98683.88;5035624;28;20049;-71
2022/08/30 05:13:59;;;;;;;24.50;9.43;;;;;;;21.73;62.37;98690.31;5035592;28;20427;-71
2022/08/30 05:16:26;;;;;;;20.83;9.10;;;;;;;21.84;61.83;98691.00;5035436;28;20045;-70
2022/08/30 05:18:53;;;;;;;21.40;8.85;;;;;;;21.91;61.85;98694.50;5035894;28;20377;-71
2022/08/30 05:21:24;;;;;;;23.67;8.18;;;;;;;21.98;61.71;98685.88;5035806;28;20049;-71
2022/08/30 05:23:57;;;;;;;19.15;9.30;;;;;;;22.02;61.33;98692.28;5035674;28;20049;-70
2022/08/30 05:26:27;;;;;;;24.13;8.73;;;;;;;22.13;61.05;98689.28;5035196;28;20493;-70
2022/08/30 05:28:55;;;;;;;19.30;8.90;;;;;;;22.20;61.12;98703.34;5035685;28;20058;-71
2022/08/30 05:31:28;;;;;;;23.08;8.18;;;;;;;22.31;60.59;98701.91;5035947;28;20140;-71
2022/08/30 05:33:55;;;;;;;20.65;9.35;;;;;;;22.42;60.04;98693.22;5034402;28;20080;-72
2022/08/30 05:36:25;;;;;;;31.95;10.23;;;;;;;22.51;59.64;98697.16;5035069;28;20140;-71
2022/08/30 05:38:53;;;;;;;26.13;9.88;;;;;;;22.56;59.26;98699.47;5035289;28;20129;-72
2022/08/30 05:41:22;;;;;;;18.63;9.45;;;;;;;22.90;58.42;98697.22;5035255;28;20045;-68
2022/08/30 05:43:54;;;;;;;26.25;10.50;;;;;;;23.64;56.57;98700.53;5035190;28;20054;-68
2022/08/30 05:46:21;;;;;;;22.13;9.10;;;;;;;24.14;55.41;98696.09;5035116;28;20048;-68
2022/08/30 05:48:49;;;;;;;23.45;9.55;;;;;;;25.25;52.25;98695.56;5034720;28;20056;-68
2022/08/30 05:51:21;;;;;;;21.10;9.75;;;;;;;26.42;49.29;98692.28;5034760;28;20126;-69
2022/08/30 05:53:50;;;;;;;19.67;9.88;;;;;;;26.64;48.75;98701.72;5034986;28;20567;-68
2022/08/30 05:56:21;;;;;;;20.88;9.30;;;;;;;26.16;49.59;98702.09;5034828;28;20052;-68
2022/08/30 05:58:52;;;;;;;20.58;9.07;;;;;;;25.68;50.53;98696.72;5034873;28;20148;-68
2022/08/30 06:01:24;;;;;;;30.80;9.00;;;;;;;25.41;51.28;98701.22;5033745;28;20045;-68
2022/08/30 06:03:52;;;;;;;22.73;9.85;;;;;;;25.53;50.76;98701.25;5034328;28;20049;-68
2022/08/30 06:06:19;;;;;;;25.92;9.65;;;;;;;25.77;50.13;98705.38;5034574;28;20045;-68
2022/08/30 06:08:47;;;;;;;26.65;9.00;;;;;;;26.55;47.95;98701.59;5034516;28;20045;-68
2022/08/30 06:11:18;;;;;;;27.80;9.93;;;;;;;26.83;47.48;98700.59;5034199;28;20151;-68
2022/08/30 06:13:46;;;;;;;22.30;9.57;;;;;;;28.25;44.31;98702.53;5034323;28;20284;-71
2022/08/30 06:16:23;;;;;;;29.10;8.95;;;;;;;29.36;41.66;98704.63;5034477;28;20065;-70
2022/08/30 06:18:51;;;;;;;23.73;9.40;;;;;;;28.90;42.71;98700.16;5034767;28;20057;-71
2022/08/30 06:21:30;;;;;;;28.33;8.93;;;;;;;28.25;43.65;98706.19;5032614;28;20053;-72
2022/08/30 06:23:57;;;;;;;21.17;9.23;;;;;;;27.62;45.01;98710.78;5034131;28;20053;-71
2022/08/30 06:26:26;;;;;;;20.45;9.27;;;;;;;27.31;45.60;98709.91;5034623;28;20041;-71
2022/08/30 06:28:54;;;;;;;21.73;10.23;;;;;;;27.56;44.64;98716.28;5034660;28;20115;-70
2022/08/30 06:31:22;;;;;;;21.90;9.32;;;;;;;27.49;44.75;98710.03;5034855;28;20057;-75
2022/08/30 06:33:50;;;;;;;19.50;9.25;;;;;;;27.67;44.40;98713.00;5034801;28;20051;-73
2022/08/30 06:36:20;;;;;;;26.23;10.02;;;;;;;27.80;44.01;98714.53;5034562;28;20049;-74
2022/08/30 06:38:52;;;;;;;25.40;9.73;;;;;;;28.57;42.24;98702.03;5034797;28;20053;-75
2022/08/30 06:41:23;;;;;;;22.08;9.35;;;;;;;30.37;38.73;98698.16;5033773;28;20052;-70
2022/08/30 06:43:50;;;;;;;18.15;9.68;;;;;;;31.23;37.06;98707.66;5034078;28;20054;-71
2022/08/30 06:46:21;;;;;;;20.90;9.52;;;;;;;30.97;37.03;98695.09;5033813;28;20484;-67
2022/08/30 06:48:48;;;;;;;27.98;9.65;;;;;;;29.99;38.43;98713.09;5033947;28;20496;-69
2022/08/30 06:51:22;;;;;;;27.00;9.68;;;;;;;29.10;40.24;98706.22;5033848;28;20049;-68
2022/08/30 06:53:49;;;;;;;18.27;9.15;;;;;;;28.37;41.59;98704.47;5034626;28;20056;-67
2022/08/30 06:56:17;;;;;;;20.90;8.80;;;;;;;27.77;42.86;98711.81;5033564;28;20079;-68
2022/08/30 06:58:46;;;;;;;23.55;9.13;;;;;;;27.62;43.22;98711.56;5033988;28;20053;-67
2022/08/30 07:01:20;;;;;;;27.98;9.63;;;;;;;27.80;42.83;98708.81;5033766;28;20064;-67
2022/08/30 07:03:47;;;;;;;20.08;8.90;;;;;;;27.89;42.66;98699.53;5033403;28;20053;-65
2022/08/30 07:06:14;;;;;;;20.77;9.30;;;;;;;27.72;42.38;98706.69;5033405;28;20053;-64
2022/08/30 07:08:45;;;;;;;18.30;9.40;;;;;;;27.61;42.91;98706.31;5033634;28;20064;-65
2022/08/30 07:11:12;;;;;;;19.73;8.75;;;;;;;27.54;42.92;98712.31;5033735;28;20049;-63
2022/08/30 07:13:39;;;;;;;17.33;9.63;;;;;;;27.34;43.28;98715.50;5033447;28;20122;-68
2022/08/30 07:16:11;;;;;;;23.15;8.77;;;;;;;27.15;43.65;98710.09;5032338;28;20048;-65
2022/08/30 07:18:50;;;;;;;21.27;9.10;;;;;;;27.11;43.83;98709.44;5033132;28;20057;-64
2022/08/30 07:21:28;;;;;;;20.30;9.00;;;;;;;27.15;43.61;98710.09;5033149;28;20511;-65
2022/08/30 07:23:57;;;;;;;18.48;9.27;;;;;;;27.32;43.11;98711.53;5033112;28;20050;-64
2022/08/30 07:26:29;;;;;;;18.65;9.38;;;;;;;27.57;42.61;98722.81;5032547;28;20042;-65
2022/08/30 07:28:56;;;;;;;19.40;9.05;;;;;;;27.88;42.08;98715.06;5033078;28;20448;-65
2022/08/30 07:31:24;;;;;;;20.25;9.18;;;;;;;27.93;41.95;98715.28;5033639;28;20053;-65
2022/08/30 07:33:51;;;;;;;21.23;9.00;;;;;;;28.08;41.77;98718.34;5033252;28;20115;-65
2022/08/30 07:36:20;;;;;;;20.35;10.48;;;;;;;28.22;41.29;98723.50;5032810;28;20048;-64
2022/08/30 07:38:53;;;;;;;23.17;9.38;;;;;;;28.45;40.94;98717.22;5033221;28;20654;-63
2022/08/30 07:41:27;;;;;;;16.08;9.55;;;;;;;28.39;41.54;98722.75;5032817;28;20045;-65
2022/08/30 07:43:55;;;;;;;21.38;9.88;;;;;;;28.90;40.47;98725.13;5031417;28;20084;-66
2022/08/30 07:46:25;;;;;;;24.88;8.98;;;;;;;31.47;35.88;98719.91;5032937;28;20488;-68
2022/08/30 07:48:54;;;;;;;20.35;9.23;;;;;;;31.34;35.56;98719.38;5033018;28;20045;-68
2022/08/30 07:51:23;;;;;;;27.30;10.05;;;;;;;30.82;36.35;98722.97;5033088;28;20049;-66
2022/08/30 07:53:51;;;;;;;24.20;9.13;;;;;;;31.13;35.79;98720.50;5032752;28;20519;-67
2022/08/30 07:56:19;;;;;;;22.83;9.77;;;;;;;31.00;35.67;98715.03;5032429;28;20042;-65
2022/08/30 07:58:47;;;;;;;23.40;8.68;;;;;;;30.98;35.62;98719.66;5032419;28;20053;-65
2022/08/30 08:01:15;;;;;;;20.70;9.82;;;;;;;31.22;35.42;98718.34;5032261;28;20083;-67
2022/08/30 08:03:43;;;;;;;19.63;9.38;;;;;;;31.60;34.55;98714.66;5031451;28;20092;-64
2022/08/30 08:06:12;;;;;;;27.63;9.15;;;;;;;33.02;31.84;98712.59;5032443;28;20045;-65
2022/08/30 08:08:40;;;;;;;20.92;9.05;;;;;;;35.50;28.60;98716.81;5032818;28;20053;-65
2022/08/30 08:11:23;;;;;;;20.88;8.82;;;;;;;38.32;25.08;98719.84;5032112;28;20077;-65
2022/08/30 08:13:51;;;;;;;25.10;9.02;;;;;;;39.94;22.76;98724.88;5032720;28;20053;-70
2022/08/30 08:16:22;;;;;;;18.98;8.38;;;;;;;40.78;21.60;98719.25;5031153;28;20053;-70
2022/08/30 08:18:50;;;;;;;16.83;8.40;;;;;;;42.07;19.84;98716.78;5026296;28;20053;-68
2022/08/30 08:21:17;;;;;;;15.93;7.97;;;;;;;42.07;20.05;98716.00;5032216;28;20140;-67
2022/08/30 08:23:44;;;;;;;15.38;7.65;;;;;;;42.07;19.39;98719.72;5031809;28;20055;-65
2022/08/30 08:26:11;;;;;;;17.30;7.80;;;;;;;42.04;19.30;98715.00;5031671;28;20102;-66
2022/08/30 08:28:38;;;;;;;17.95;8.48;;;;;;;43.11;18.09;98722.09;5035689;28;20195;-69
2022/08/30 08:31:15;;;;;;;19.98;7.88;;;;;;;44.84;16.44;98710.16;5036308;28;20053;-67
2022/08/30 08:33:42;;;;;;;25.77;7.80;;;;;;;46.13;15.30;98718.06;5036050;28;20077;-67
2022/08/30 08:36:10;;;;;;;20.00;7.47;;;;;;;47.55;14.09;98715.28;5036037;28;20534;-70
2022/08/30 08:38:37;;;;;;;20.10;8.38;;;;;;;48.55;13.54;98719.25;5034962;28;20292;-66
2022/08/30 08:41:09;;;;;;;26.60;8.27;;;;;;;49.39;12.35;98715.03;5035747;28;20099;-65
2022/08/30 08:43:36;;;;;;;16.52;8.88;;;;;;;49.76;12.08;98709.00;5036310;28;20053;-66
2022/08/30 08:46:14;;;;;;;16.70;8.88;;;;;;;48.24;13.03;98712.25;5036340;28;20042;-66
2022/08/30 08:48:48;;;;;;;13.35;7.50;;;;;;;46.91;13.77;98709.66;5035394;28;20050;-66
2022/08/30 08:54:31;;;;;;;15.63;8.40;;;;;;;47.12;13.62;98709.25;5015865;28;20054;-66
2022/08/30 08:56:59;;;;;;;19.17;9.43;;;;;;;47.75;13.05;98711.13;5021913;28;20514;-66
2022/08/30 08:59:26;;;;;;;24.10;8.82;;;;;;;48.21;12.83;98717.19;5035199;28;20049;-65
2022/08/30 09:01:57;;;;;;;25.85;8.73;;;;;;;48.17;12.87;98705.06;5034504;28;20611;-66
2022/08/30 09:04:32;;;;;;;15.07;8.43;;;;;;;48.79;11.99;98712.38;5035073;28;20049;-66
2022/08/30 09:07:18;;;;;;;21.25;9.20;;;;;;;49.85;11.18;98702.28;5034956;28;20065;-66
2022/08/30 09:09:45;;;;;;;16.05;9.60;;;;;;;50.63;10.98;98706.00;5035346;28;20049;-65
2022/08/30 09:12:12;;;;;;;16.17;9.00;;;;;;;51.13;10.42;98705.94;5035181;28;20059;-66
2022/08/30 09:14:43;;;;;;;18.73;9.50;;;;;;;51.47;10.21;98713.53;5034515;28;20055;-66
2022/08/30 09:17:16;;;;;;;17.15;9.18;;;;;;;51.32;9.78;98711.00;5033612;28;20569;-65
2022/08/30 09:19:52;;;;;;;20.55;9.27;;;;;;;51.42;9.80;98712.47;5034983;28;20085;-65
2022/08/30 09:22:39;;;;;;;21.98;11.48;;;;;;;52.07;9.21;98712.53;5034432;28;20405;-66
2022/08/30 09:25:10;;;;;;;21.90;10.15;;;;;;;52.62;9.28;98707.25;5034656;28;20057;-67
2022/08/30 09:27:44;;;;;;;17.73;10.30;;;;;;;52.96;8.93;98715.41;5033685;28;20144;-66
2022/08/30 09:30:25;;;;;;;21.85;10.70;;;;;;;50.71;10.14;98708.81;5034947;28;20128;-66
2022/08/30 09:32:55;;;;;;;17.73;10.35;;;;;;;49.24;11.21;98712.34;5033874;28;20057;-65
2022/08/30 09:35:36;;;;;;;25.40;10.65;;;;;;;48.72;11.80;98719.22;5033138;28;20045;-68
2022/08/30 09:38:27;;;;;;;17.73;10.93;;;;;;;48.25;11.96;98711.63;5031695;28;20145;-68
2022/08/30 09:40:57;;;;;;;23.25;12.85;;;;;;;45.15;14.17;98711.72;5032007;28;20049;-69
2022/08/30 09:43:27;;;;;;;18.23;10.98;;;;;;;42.58;16.19;98703.28;5032224;28;20068;-66
2022/08/30 09:46:01;;;;;;;22.25;12.00;;;;;;;41.33;17.37;98700.66;5034551;28;20099;-66
2022/08/30 09:48:36;;;;;;;23.50;11.05;;;;;;;40.54;18.29;98704.00;5033922;28;20049;-65
2022/08/30 09:51:09;;;;;;;30.08;13.18;;;;;;;39.42;19.22;98704.16;5035159;28;20041;-64
2022/08/30 09:54:02;;;;;;;22.73;11.77;;;;;;;38.41;20.61;98704.94;5044002;28;20095;-66
2022/08/30 09:57:03;;;;;;;21.23;12.20;;;;;;;37.23;21.76;98702.53;5031234;28;20476;-65
2022/08/30 09:59:55;;;;;;;23.92;11.02;;;;;;;36.81;21.89;98705.84;5033754;28;20134;-68
2022/08/30 10:02:40;;;;;;;22.33;11.45;;;;;;;36.28;22.93;98706.94;5034142;28;20064;-66
2022/08/30 10:05:16;;;;;;;22.50;12.57;;;;;;;35.82;23.49;98700.06;5032815;28;20080;-67
2022/08/30 10:07:49;;;;;;;17.10;11.35;;;;;;;35.44;23.95;98698.63;5034217;28;20045;-65
2022/08/30 10:10:43;;;;;;;19.58;11.68;;;;;;;35.05;24.31;98700.56;5032964;28;20061;-66
2022/08/30 10:13:37;;;;;;;21.77;11.55;;;;;;;34.31;25.39;98710.56;5024145;28;20045;-64
2022/08/30 10:16:40;;;;;;;23.13;12.57;;;;;;;33.89;25.94;98698.91;5034322;28;20049;-66
2022/08/30 10:19:21;;;;;;;23.48;12.13;;;;;;;33.36;26.76;98703.03;5023315;28;20622;-65
2022/08/30 10:22:01;;;;;;;28.25;12.80;;;;;;;32.97;27.46;98701.75;5034469;28;20107;-65
2022/08/30 10:24:34;;;;;;;21.58;11.68;;;;;;;32.74;27.75;98705.59;5031688;28;20053;-66
2022/08/30 10:27:09;;;;;;;22.40;12.10;;;;;;;32.52;28.21;98704.50;5032529;28;20124;-65
2022/08/30 10:29:36;;;;;;;29.70;11.63;;;;;;;32.44;28.17;98703.34;5034676;28;20053;-66
2022/08/30 10:32:19;;;;;;;25.70;11.57;;;;;;;32.22;28.41;98715.28;5032683;28;20049;-66
2022/08/30 10:34:53;;;;;;;23.90;12.02;;;;;;;32.05;28.47;98705.56;5034007;28;20037;-64
2022/08/30 10:37:28;;;;;;;20.25;11.80;;;;;;;31.92;28.93;98715.78;5033679;28;20121;-64
2022/08/30 10:41:11;;;;;;;20.95;11.60;;;;;;;31.77;28.90;98704.25;5033232;28;20045;-65
2022/08/30 10:42:57;;;;;;;18.73;11.88;;;;;;;31.81;29.41;98699.09;5031834;28;20045;-65
2022/08/30 10:45:28;;;;;;;23.02;11.95;;;;;;;31.86;29.21;98698.44;5033394;28;20049;-65
2022/08/30 10:48:02;;;;;;;20.45;10.90;;;;;;;31.94;29.42;98708.25;5033523;28;20041;-66
2022/08/30 10:50:39;;;;;;;22.02;12.00;;;;;;;32.15;29.17;98700.50;5031823;28;20053;-67
2022/08/30 10:53:14;;;;;;;19.08;11.38;;;;;;;32.26;29.32;98701.44;5036913;28;20135;-66
2022/08/30 10:55:53;;;;;;;29.83;11.40;;;;;;;32.09;29.23;98709.03;5033581;28;20049;-65
2022/08/30 10:58:20;;;;;;;22.85;11.68;;;;;;;31.78;29.88;98700.09;5032563;28;20049;-65
2022/08/30 11:00:59;;;;;;;21.92;11.48;;;;;;;31.52;30.14;98707.72;5033226;28;20520;-65
2022/08/30 11:03:41;;;;;;;25.40;11.70;;;;;;;31.21;30.48;98699.53;5031136;28;20057;-66
2022/08/30 11:06:39;;;;;;;24.58;11.48;;;;;;;31.10;30.54;98693.53;5032233;28;20045;-65
2022/08/30 11:09:21;;;;;;;30.60;11.52;;;;;;;31.01;30.43;98699.34;5033714;28;20057;-66
2022/08/30 11:12:13;;;;;;;23.98;11.18;;;;;;;30.89;30.84;98693.84;5032406;28;20045;-66
2022/08/30 11:14:43;;;;;;;26.63;11.10;;;;;;;30.71;30.51;98697.63;5023831;28;20561;-65
2022/08/30 11:17:28;;;;;;;17.67;11.55;;;;;;;30.70;30.43;98683.75;5035474;28;20568;-65
2022/08/30 11:19:58;;;;;;;23.23;11.73;;;;;;;30.59;31.04;98692.13;5033531;28;20616;-65
2022/08/30 11:22:33;;;;;;;21.92;11.63;;;;;;;30.51;30.89;98690.88;5013389;28;20148;-65
2022/08/30 11:25:36;;;;;;;21.27;10.73;;;;;;;30.35;30.88;98694.97;5018893;28;20037;-66
2022/08/30 11:28:05;;;;;;;26.55;10.07;;;;;;;30.25;30.95;98689.78;5033051;28;20045;-66
2022/08/30 11:30:32;;;;;;;25.80;11.30;;;;;;;30.18;31.12;98691.69;5045672;28;20049;-65
2022/08/30 11:33:29;;;;;;;19.45;10.98;;;;;;;30.16;30.92;98693.44;5045836;28;20539;-66
2022/08/30 11:35:56;;;;;;;17.65;11.07;;;;;;;30.12;31.39;98696.50;5050465;28;20053;-65
2022/08/30 11:38:27;;;;;;;19.77;11.18;;;;;;;30.11;31.71;98691.25;5052878;28;20056;-65
2022/08/30 11:40:54;;;;;;;24.98;11.15;;;;;;;30.03;31.92;98687.94;5053376;28;20548;-65
2022/08/30 11:43:36;;;;;;;23.65;11.85;;;;;;;29.85;32.42;98693.75;5052668;28;20095;-66
2022/08/30 11:46:17;;;;;;;25.08;10.82;;;;;;;29.95;32.12;98689.53;5052961;28;20048;-66